createdAt,value
2017-10-31T00:01:49.869Z,87.98
2017-10-31T00:04:18.140Z,87.95
2017-10-31T00:06:47.173Z,89.48
2017-10-31T00:09:15.456Z,88.97
2017-10-31T00:11:44.500Z,89.40
2017-10-31T00:14:12.820Z,89.41
2017-10-31T00:16:42.508Z,89.46
2017-10-31T00:19:10.785Z,89.58
2017-10-31T00:21:39.065Z,89.83
2017-10-31T00:24:07.341Z,90.41
2017-10-31T00:26:35.609Z,89.49
2017-10-31T00:29:03.885Z,89.55
2017-10-31T00:31:32.168Z,89.08
2017-10-31T00:34:00.449Z,88.70
2017-10-31T00:36:28.738Z,88.19
2017-10-31T00:38:57.027Z,88.18
2017-10-31T00:41:25.310Z,87.79
2017-10-31T00:43:54.913Z,87.99
2017-10-31T00:46:23.189Z,87.96
2017-10-31T00:48:52.232Z,87.67
2017-10-31T00:51:20.504Z,87.56
2017-10-31T00:53:48.780Z,87.36
2017-10-31T00:56:17.067Z,87.46
2017-10-31T00:58:45.354Z,87.03
2017-10-31T01:01:13.620Z,88.03
2017-10-31T01:03:41.891Z,87.91
2017-10-31T01:06:10.164Z,87.63
2017-10-31T01:08:38.431Z,88.08
2017-10-31T01:11:06.707Z,87.92
2017-10-31T01:13:34.991Z,88.58
2017-10-31T01:16:03.263Z,88.48
2017-10-31T01:18:31.538Z,88.41
2017-10-31T01:20:59.808Z,88.79
2017-10-31T01:23:28.089Z,88.20
2017-10-31T01:25:56.383Z,87.80
2017-10-31T01:28:24.662Z,88.07
2017-10-31T01:30:52.937Z,87.87
2017-10-31T01:33:21.213Z,87.48
2017-10-31T01:35:49.503Z,86.91
2017-10-31T01:38:17.773Z,86.32
2017-10-31T01:40:46.049Z,85.39
2017-10-31T01:43:14.324Z,86.98
2017-10-31T01:45:42.600Z,86.75
2017-10-31T01:48:10.867Z,87.92
2017-10-31T01:50:39.140Z,88.09
2017-10-31T01:53:07.442Z,88.15
2017-10-31T01:55:35.707Z,87.63
2017-10-31T01:58:03.991Z,87.17
2017-10-31T02:00:32.262Z,86.56
2017-10-31T02:03:00.529Z,87.42
2017-10-31T02:05:28.801Z,87.39
2017-10-31T02:07:57.092Z,86.96
2017-10-31T02:10:25.363Z,87.15
2017-10-31T02:12:53.637Z,87.77
2017-10-31T02:15:21.920Z,86.75
2017-10-31T02:17:50.201Z,86.27
2017-10-31T02:20:18.470Z,86.39
2017-10-31T02:22:46.749Z,87.04
2017-10-31T02:25:15.029Z,86.97
2017-10-31T02:27:43.278Z,87.83
2017-10-31T02:30:11.534Z,87.21
2017-10-31T02:32:39.807Z,87.03
2017-10-31T02:35:08.103Z,87.32
2017-10-31T02:37:36.359Z,87.50
2017-10-31T02:40:04.638Z,87.29
2017-10-31T02:42:32.915Z,86.74
2017-10-31T02:45:01.171Z,86.82
2017-10-31T02:47:29.446Z,86.59
2017-10-31T02:49:58.482Z,86.50
2017-10-31T02:52:26.765Z,86.47
2017-10-31T02:54:55.041Z,86.07
2017-10-31T02:57:23.323Z,86.73
2017-10-31T02:59:51.592Z,85.65
2017-10-31T03:02:19.864Z,85.56
2017-10-31T03:04:48.139Z,84.87
2017-10-31T03:07:16.404Z,85.63
2017-10-31T03:09:44.692Z,84.89
2017-10-31T03:12:12.969Z,84.96
2017-10-31T03:14:41.257Z,84.51
2017-10-31T03:17:09.528Z,84.80
2017-10-31T03:19:37.797Z,85.37
2017-10-31T03:22:06.064Z,85.12
2017-10-31T03:24:34.340Z,85.71
2017-10-31T03:27:02.621Z,86.53
2017-10-31T03:29:32.105Z,86.17
2017-10-31T03:32:00.379Z,85.80
2017-10-31T03:34:28.656Z,86.98
2017-10-31T03:36:56.929Z,86.94
2017-10-31T03:39:25.213Z,87.42
2017-10-31T03:41:53.485Z,86.57
2017-10-31T03:44:21.758Z,87.23
2017-10-31T03:46:50.037Z,87.15
2017-10-31T03:49:18.315Z,88.85
2017-10-31T03:51:46.589Z,88.38
2017-10-31T03:54:14.863Z,88.69
2017-10-31T03:56:43.140Z,88.49
2017-10-31T03:59:11.416Z,88.00
2017-10-31T04:01:39.691Z,89.30
2017-10-31T04:04:08.013Z,88.64
2017-10-31T04:06:36.305Z,89.05
2017-10-31T04:09:04.579Z,89.30
2017-10-31T04:11:32.861Z,89.38
2017-10-31T04:14:01.132Z,90.00
2017-10-31T04:16:29.413Z,90.84
2017-10-31T04:18:57.691Z,91.28
2017-10-31T04:21:25.963Z,91.93
2017-10-31T04:23:55.002Z,92.78
2017-10-31T04:26:23.273Z,92.90
2017-10-31T04:28:51.557Z,91.75
2017-10-31T04:31:20.733Z,92.72
2017-10-31T04:33:48.984Z,91.54
2017-10-31T04:36:17.249Z,90.24
2017-10-31T04:38:45.509Z,89.81
2017-10-31T04:41:13.765Z,89.80
2017-10-31T04:43:42.030Z,89.57
2017-10-31T04:46:10.304Z,89.39
2017-10-31T04:48:38.577Z,90.00
2017-10-31T04:51:07.673Z,89.11
2017-10-31T04:53:35.946Z,89.18
2017-10-31T04:56:04.222Z,90.04
2017-10-31T04:58:32.499Z,89.70
2017-10-31T05:01:00.873Z,89.38
2017-10-31T05:03:29.146Z,89.92
2017-10-31T05:05:57.417Z,89.61
2017-10-31T05:08:25.683Z,89.51
2017-10-31T05:10:53.959Z,89.65
2017-10-31T05:13:22.232Z,89.01
2017-10-31T05:15:51.268Z,89.58
2017-10-31T05:18:19.534Z,90.16
2017-10-31T05:20:47.805Z,90.74
2017-10-31T05:23:16.080Z,90.54
2017-10-31T05:25:44.356Z,90.77
2017-10-31T05:28:12.636Z,90.52
2017-10-31T05:30:40.913Z,91.12
2017-10-31T05:33:09.175Z,91.43
2017-10-31T05:35:37.442Z,90.90
2017-10-31T05:38:05.698Z,90.41
2017-10-31T05:40:34.736Z,90.57
2017-10-31T05:43:03.004Z,90.32
2017-10-31T05:45:31.279Z,90.00
2017-10-31T05:47:59.550Z,89.90
2017-10-31T05:50:27.817Z,89.76
2017-10-31T05:52:56.089Z,89.36
2017-10-31T05:55:24.359Z,89.04
2017-10-31T05:57:53.387Z,89.37
2017-10-31T06:00:21.656Z,89.62
2017-10-31T06:02:49.929Z,91.30
2017-10-31T06:05:18.207Z,90.80
2017-10-31T06:07:46.481Z,90.52
2017-10-31T06:10:14.757Z,90.80
2017-10-31T06:12:43.036Z,91.20
2017-10-31T06:15:11.320Z,91.40
2017-10-31T06:17:39.589Z,91.11
2017-10-31T06:20:07.862Z,91.30
2017-10-31T06:22:41.485Z,90.66
2017-10-31T06:25:15.278Z,90.44
2017-10-31T06:27:49.013Z,90.87
2017-10-31T06:30:22.805Z,90.52
2017-10-31T06:32:51.072Z,90.06
2017-10-31T06:35:19.350Z,90.03
2017-10-31T06:37:47.619Z,89.47
2017-10-31T06:40:15.888Z,89.12
2017-10-31T06:42:44.165Z,88.92
2017-10-31T06:45:12.434Z,88.49
2017-10-31T06:47:40.706Z,89.04
2017-10-31T06:50:08.980Z,89.19
2017-10-31T06:52:37.260Z,90.05
2017-10-31T06:55:05.540Z,89.93
2017-10-31T06:57:33.816Z,89.74
2017-10-31T07:00:02.096Z,89.74
2017-10-31T07:02:30.369Z,89.40
2017-10-31T07:04:58.641Z,89.38
2017-10-31T07:07:26.919Z,89.42
2017-10-31T07:09:55.188Z,89.43
2017-10-31T07:12:23.464Z,89.67
2017-10-31T07:14:51.768Z,90.41
2017-10-31T07:17:20.048Z,91.40
2017-10-31T07:19:48.320Z,90.49
2017-10-31T07:22:16.596Z,90.38
2017-10-31T07:24:44.890Z,90.97
2017-10-31T07:27:13.160Z,90.27
2017-10-31T07:29:41.440Z,89.91
2017-10-31T07:32:09.729Z,89.75
2017-10-31T07:34:37.996Z,89.01
2017-10-31T07:37:06.276Z,88.59
2017-10-31T07:39:34.621Z,88.47
2017-10-31T07:42:02.917Z,88.19
2017-10-31T07:44:31.191Z,87.53
2017-10-31T07:46:59.460Z,87.47
2017-10-31T07:49:27.729Z,87.39
2017-10-31T07:51:56.005Z,86.58
2017-10-31T07:54:24.276Z,86.08
2017-10-31T07:56:52.548Z,87.50
2017-10-31T07:59:20.816Z,86.66
2017-10-31T08:01:49.090Z,86.02
2017-10-31T08:04:17.371Z,87.11
2017-10-31T08:06:46.174Z,86.83
2017-10-31T08:09:15.392Z,86.25
2017-10-31T08:11:43.673Z,85.79
2017-10-31T08:14:11.949Z,86.13
2017-10-31T08:16:40.240Z,86.58
2017-10-31T08:19:08.520Z,86.62
2017-10-31T08:21:36.819Z,87.85
2017-10-31T08:24:05.862Z,86.72
2017-10-31T08:26:34.164Z,87.55
2017-10-31T08:29:02.440Z,87.93
2017-10-31T08:31:30.719Z,88.92
2017-10-31T08:33:58.986Z,88.00
2017-10-31T08:36:27.247Z,88.83
2017-10-31T08:38:56.281Z,88.80
2017-10-31T08:41:24.559Z,89.39
2017-10-31T08:43:53.591Z,89.35
2017-10-31T08:46:21.864Z,89.05
2017-10-31T08:48:50.145Z,88.87
2017-10-31T08:51:18.419Z,89.04
2017-10-31T08:53:46.695Z,88.49
2017-10-31T08:56:14.974Z,88.78
2017-10-31T08:58:43.297Z,88.99
2017-10-31T09:01:11.576Z,88.51
2017-10-31T09:03:39.855Z,88.20
2017-10-31T09:06:08.892Z,87.70
2017-10-31T09:08:37.169Z,87.48
2017-10-31T09:11:05.444Z,86.60
2017-10-31T09:13:33.724Z,86.30
2017-10-31T09:16:01.996Z,87.17
2017-10-31T09:18:30.299Z,86.36
2017-10-31T09:20:58.579Z,85.25
2017-10-31T09:23:26.858Z,85.62
2017-10-31T09:25:55.139Z,85.89
2017-10-31T09:28:23.421Z,85.71
2017-10-31T09:30:51.707Z,85.09
2017-10-31T09:33:20.748Z,84.52
2017-10-31T09:35:49.023Z,84.54
2017-10-31T09:38:17.296Z,84.39
2017-10-31T09:40:45.580Z,84.84
2017-10-31T09:43:13.861Z,85.48
2017-10-31T09:45:42.175Z,84.70
2017-10-31T09:48:10.463Z,85.02
2017-10-31T09:50:38.735Z,84.14
2017-10-31T09:53:07.763Z,85.22
2017-10-31T09:55:36.038Z,85.13
2017-10-31T09:58:04.314Z,84.64
2017-10-31T10:00:32.593Z,83.57
2017-10-31T10:03:00.868Z,84.42
2017-10-31T10:05:29.146Z,83.91
2017-10-31T10:07:57.423Z,83.10
2017-10-31T10:10:25.697Z,83.94
2017-10-31T10:12:53.972Z,83.07
2017-10-31T10:15:22.248Z,82.46
2017-10-31T10:17:50.523Z,82.64
2017-10-31T10:20:18.801Z,82.09
2017-10-31T10:22:47.096Z,81.68
2017-10-31T10:25:15.364Z,81.51
2017-10-31T10:27:43.671Z,82.22
2017-10-31T10:30:11.944Z,82.05
2017-10-31T10:32:40.228Z,81.83
2017-10-31T10:35:08.501Z,81.35
2017-10-31T10:37:36.775Z,81.68
2017-10-31T10:40:05.037Z,81.96
2017-10-31T10:42:33.308Z,80.84
2017-10-31T10:45:01.583Z,80.03
2017-10-31T10:47:29.877Z,78.18
2017-10-31T10:49:58.156Z,79.28
2017-10-31T10:52:26.453Z,80.33
2017-10-31T10:54:54.771Z,78.59
2017-10-31T10:57:23.137Z,78.87
2017-10-31T10:59:52.204Z,79.53
2017-10-31T11:02:20.827Z,78.13
2017-10-31T11:04:49.114Z,79.12
2017-10-31T11:07:18.317Z,79.56
2017-10-31T11:09:46.602Z,79.45
2017-10-31T11:12:14.876Z,80.44
2017-10-31T11:14:43.148Z,80.49
2017-10-31T11:17:11.432Z,80.13
2017-10-31T11:19:39.705Z,79.57
2017-10-31T11:22:07.989Z,79.72
2017-10-31T11:24:36.256Z,81.02
2017-10-31T11:27:04.528Z,81.21
2017-10-31T11:29:32.805Z,80.56
2017-10-31T11:32:01.092Z,80.15
2017-10-31T11:34:29.369Z,79.61
2017-10-31T11:36:57.644Z,80.73
2017-10-31T11:39:25.912Z,80.18
2017-10-31T11:41:54.180Z,80.01
2017-10-31T11:44:22.456Z,79.80
2017-10-31T11:46:50.740Z,79.11
2017-10-31T11:49:19.124Z,79.66
2017-10-31T11:51:47.452Z,79.68
2017-10-31T11:54:16.493Z,79.59
2017-10-31T11:56:44.772Z,78.68
2017-10-31T11:59:13.056Z,78.44
2017-10-31T12:01:41.993Z,77.61
2017-10-31T12:04:10.300Z,76.84
2017-10-31T12:06:38.584Z,77.53
2017-10-31T12:09:06.876Z,77.05
2017-10-31T12:11:35.162Z,77.21
2017-10-31T12:14:03.452Z,78.33
2017-10-31T12:16:31.737Z,77.48
2017-10-31T12:19:00.018Z,77.73
2017-10-31T12:21:29.072Z,77.63
2017-10-31T12:23:58.013Z,78.16
2017-10-31T12:26:26.393Z,76.81
2017-10-31T12:28:54.672Z,77.19
2017-10-31T12:31:22.960Z,75.99
2017-10-31T12:33:51.235Z,76.87
2017-10-31T12:36:19.524Z,77.27
2017-10-31T12:38:47.815Z,77.16
2017-10-31T12:41:16.101Z,78.70
2017-10-31T12:43:44.837Z,78.68
2017-10-31T12:46:13.113Z,78.78
2017-10-31T12:48:41.389Z,80.24
2017-10-31T12:51:09.666Z,80.07
2017-10-31T12:53:37.941Z,79.62
2017-10-31T12:56:06.213Z,79.70
2017-10-31T12:58:34.528Z,80.53
2017-10-31T13:01:02.801Z,79.80
2017-10-31T13:03:31.082Z,81.13
2017-10-31T13:05:59.354Z,81.12
2017-10-31T13:08:27.675Z,81.59
2017-10-31T13:10:55.981Z,80.43
2017-10-31T13:13:24.255Z,80.49
2017-10-31T13:15:52.618Z,80.84
2017-10-31T13:18:21.102Z,81.30
2017-10-31T13:20:49.491Z,80.74
2017-10-31T13:23:17.785Z,80.22
2017-10-31T13:25:46.058Z,80.85
2017-10-31T13:28:14.669Z,81.18
2017-10-31T13:30:43.314Z,80.75
2017-10-31T13:33:12.258Z,80.67
2017-10-31T13:35:42.562Z,80.46
2017-10-31T13:38:12.399Z,80.41
2017-10-31T13:40:42.385Z,80.33
2017-10-31T13:43:11.761Z,80.96
2017-10-31T13:45:40.354Z,81.44
2017-10-31T13:48:09.725Z,81.25
2017-10-31T13:50:38.696Z,82.92
2017-10-31T13:53:07.062Z,82.18
2017-10-31T13:55:35.346Z,82.67
2017-10-31T13:58:03.677Z,82.15
2017-10-31T14:00:32.290Z,82.34
2017-10-31T14:03:00.902Z,81.94
2017-10-31T14:05:29.205Z,82.03
2017-10-31T14:07:57.792Z,82.79
2017-10-31T14:10:26.684Z,83.15
2017-10-31T14:12:55.246Z,82.05
2017-10-31T14:15:23.583Z,81.67
2017-10-31T14:17:51.966Z,80.60
2017-10-31T14:20:20.631Z,80.89
2017-10-31T14:22:49.027Z,80.21
2017-10-31T14:25:17.296Z,80.78
2017-10-31T14:27:45.601Z,80.89
2017-10-31T14:30:13.904Z,80.76
2017-10-31T14:32:42.221Z,81.54
2017-10-31T14:35:10.536Z,80.79
2017-10-31T14:37:38.876Z,81.77
2017-10-31T14:40:07.393Z,81.97
2017-10-31T14:42:35.705Z,82.24
2017-10-31T14:45:04.849Z,81.53
2017-10-31T14:47:33.160Z,81.34
2017-10-31T14:50:01.594Z,81.23
2017-10-31T14:52:29.913Z,81.00
2017-10-31T14:54:58.210Z,80.97
2017-10-31T14:57:26.517Z,80.88
2017-10-31T14:59:54.788Z,81.39
2017-10-31T15:02:23.069Z,80.39
2017-10-31T15:04:51.366Z,80.24
2017-10-31T15:07:19.649Z,80.20
2017-10-31T15:09:47.920Z,80.40
2017-10-31T15:12:16.236Z,80.30
2017-10-31T15:14:45.266Z,80.54
2017-10-31T15:17:13.560Z,80.57
2017-10-31T15:19:41.890Z,80.77
2017-10-31T15:22:11.039Z,81.16
2017-10-31T15:24:39.380Z,80.72
2017-10-31T15:27:07.672Z,80.06
2017-10-31T15:29:35.983Z,79.84
2017-10-31T15:32:04.279Z,80.21
2017-10-31T15:34:32.567Z,80.48
2017-10-31T15:37:01.634Z,80.79
2017-10-31T15:39:29.960Z,80.46
2017-10-31T15:41:58.254Z,80.58
2017-10-31T15:44:27.717Z,80.76
2017-10-31T15:46:56.009Z,80.68
2017-10-31T15:49:24.300Z,80.18
2017-10-31T15:51:52.625Z,80.92
2017-10-31T15:54:20.932Z,80.39
2017-10-31T15:56:49.969Z,81.11
2017-10-31T15:59:18.254Z,81.19
2017-10-31T16:01:46.532Z,81.93
2017-10-31T16:04:14.876Z,81.86
2017-10-31T16:06:44.545Z,81.89
2017-10-31T16:09:13.767Z,81.52
2017-10-31T16:11:42.048Z,81.41
2017-10-31T16:14:10.361Z,81.64
2017-10-31T16:16:38.635Z,81.94
2017-10-31T16:19:06.927Z,81.77
2017-10-31T16:21:35.221Z,81.79
2017-10-31T16:24:03.492Z,82.85
2017-10-31T16:26:31.777Z,82.86
2017-10-31T16:29:00.057Z,82.30
2017-10-31T16:31:28.349Z,82.48
2017-10-31T16:33:57.404Z,82.13
2017-10-31T16:36:25.687Z,82.38
2017-10-31T16:38:53.969Z,81.86
2017-10-31T16:41:23.107Z,81.96
2017-10-31T16:43:51.468Z,81.81
2017-10-31T16:46:20.513Z,81.87
2017-10-31T16:48:48.793Z,81.98
2017-10-31T16:51:17.068Z,82.24
2017-10-31T16:53:45.827Z,82.71
2017-10-31T16:56:14.103Z,83.05
2017-10-31T16:58:42.379Z,83.50
2017-10-31T17:01:10.651Z,84.52
2017-10-31T17:03:38.927Z,84.04
2017-10-31T17:06:07.206Z,83.67
2017-10-31T17:08:35.485Z,83.72
2017-10-31T17:11:03.811Z,83.62
2017-10-31T17:13:32.090Z,83.45
2017-10-31T17:16:00.415Z,83.08
2017-10-31T17:18:29.036Z,82.66
2017-10-31T17:20:57.349Z,82.55
2017-10-31T17:23:25.629Z,82.43
2017-10-31T17:25:54.702Z,82.61
2017-10-31T17:28:23.078Z,83.27
2017-10-31T17:30:51.441Z,82.88
2017-10-31T17:33:21.455Z,82.86
2017-10-31T17:35:49.876Z,83.17
2017-10-31T17:38:18.294Z,83.07
2017-10-31T17:40:46.885Z,83.49
2017-10-31T17:43:15.575Z,83.79
2017-10-31T17:45:44.830Z,84.36
2017-10-31T17:48:13.525Z,83.55
2017-10-31T17:50:42.005Z,83.39
2017-10-31T17:53:10.533Z,83.06
2017-10-31T17:55:38.898Z,83.00
2017-10-31T17:58:07.307Z,82.73
2017-10-31T18:00:36.657Z,83.18
2017-10-31T18:03:05.304Z,82.54
2017-10-31T18:05:33.626Z,82.53
2017-10-31T18:08:02.134Z,82.97
2017-10-31T18:10:31.389Z,83.05
2017-10-31T18:13:00.496Z,83.18
2017-10-31T18:15:30.864Z,82.68
2017-10-31T18:18:00.613Z,82.80
2017-10-31T18:20:29.993Z,82.46
2017-10-31T18:22:58.998Z,82.76
2017-10-31T18:25:28.752Z,82.53
2017-10-31T18:27:58.505Z,82.53
2017-10-31T18:30:28.171Z,83.08
2017-10-31T18:32:58.775Z,82.92
2017-10-31T18:35:29.073Z,83.16
2017-10-31T18:37:58.901Z,83.10
2017-10-31T18:40:29.269Z,82.95
2017-10-31T18:42:58.851Z,82.72
2017-10-31T18:45:28.704Z,82.30
2017-10-31T18:47:58.508Z,82.46
2017-10-31T18:50:29.202Z,82.36
2017-10-31T18:52:59.020Z,81.87
2017-10-31T18:55:28.816Z,81.74
2017-10-31T18:57:59.009Z,82.54
2017-10-31T19:00:28.756Z,82.23
2017-10-31T19:02:59.237Z,82.15
2017-10-31T19:05:29.020Z,82.27
2017-10-31T19:07:58.796Z,82.58
2017-10-31T19:10:29.388Z,81.95
2017-10-31T19:12:59.219Z,81.94
2017-10-31T19:15:29.010Z,81.52
2017-10-31T19:17:58.844Z,81.08
2017-10-31T19:20:28.716Z,80.98
2017-10-31T19:22:58.568Z,81.14
2017-10-31T19:25:28.550Z,81.42
2017-10-31T19:27:58.454Z,81.83
2017-10-31T19:30:28.452Z,82.54
2017-10-31T19:32:58.303Z,81.81
2017-10-31T19:35:28.305Z,82.04
2017-10-31T19:37:58.112Z,82.49
2017-10-31T19:40:27.912Z,82.72
2017-10-31T19:42:57.651Z,83.11
2017-10-31T19:45:27.552Z,83.46
2017-10-31T19:47:57.308Z,83.18
2017-10-31T19:50:28.790Z,83.44
2017-10-31T19:52:58.645Z,83.96
2017-10-31T19:55:28.563Z,84.03
2017-10-31T19:57:58.439Z,84.28
2017-10-31T20:00:28.375Z,84.29
2017-10-31T20:02:58.245Z,83.89
2017-10-31T20:05:28.617Z,83.25
2017-10-31T20:07:58.469Z,83.57
2017-10-31T20:10:29.249Z,82.94
2017-10-31T20:12:59.123Z,82.67
2017-10-31T20:15:28.936Z,82.70
2017-10-31T20:18:01.030Z,83.00
2017-10-31T20:20:30.915Z,82.65
2017-10-31T20:23:01.531Z,83.19
2017-10-31T20:25:31.452Z,83.83
2017-10-31T20:28:01.363Z,83.76
2017-10-31T20:30:31.939Z,83.94
2017-10-31T20:33:01.848Z,83.73
2017-10-31T20:35:31.617Z,83.76
2017-10-31T20:38:01.822Z,83.62
2017-10-31T20:40:32.371Z,83.22
2017-10-31T20:43:02.199Z,83.33
2017-10-31T20:45:32.235Z,83.50
2017-10-31T20:48:02.008Z,83.34
2017-10-31T20:50:31.820Z,82.95
2017-10-31T20:53:01.774Z,82.51
2017-10-31T20:55:31.766Z,82.91
2017-10-31T20:58:01.526Z,83.04
2017-10-31T21:00:31.297Z,82.77
2017-10-31T21:03:01.131Z,82.54
2017-10-31T21:05:30.961Z,83.00
2017-10-31T21:08:00.822Z,82.81
2017-10-31T21:10:30.556Z,82.42
2017-10-31T21:13:00.465Z,82.25
2017-10-31T21:15:30.280Z,82.81
2017-10-31T21:18:00.763Z,82.85
2017-10-31T21:20:30.574Z,82.87
2017-10-31T21:23:00.383Z,82.71
2017-10-31T21:25:30.312Z,82.64
2017-10-31T21:28:00.188Z,82.39
2017-10-31T21:30:30.005Z,82.31
2017-10-31T21:32:59.797Z,82.05
2017-10-31T21:35:29.657Z,82.37
2017-10-31T21:37:59.422Z,82.71
2017-10-31T21:40:29.182Z,82.95
2017-10-31T21:42:59.025Z,83.58
2017-10-31T21:45:28.805Z,83.76
2017-10-31T21:47:58.531Z,83.26
2017-10-31T21:50:27.995Z,82.94
2017-10-31T21:52:57.181Z,83.26
2017-10-31T21:55:26.471Z,83.46
2017-10-31T21:57:54.824Z,83.37
2017-10-31T22:00:23.374Z,82.90
2017-10-31T22:02:51.840Z,82.77
2017-10-31T22:05:20.152Z,83.21
2017-10-31T22:07:48.480Z,82.81
2017-10-31T22:10:16.777Z,82.53
2017-10-31T22:12:45.069Z,82.61
2017-10-31T22:15:13.341Z,82.30
2017-10-31T22:17:41.616Z,82.21
2017-10-31T22:20:09.900Z,82.23
2017-10-31T22:22:38.178Z,82.24
2017-10-31T22:25:06.452Z,82.68
2017-10-31T22:27:35.502Z,82.52
2017-10-31T22:30:03.792Z,82.75
2017-10-31T22:32:32.069Z,82.88
2017-10-31T22:35:00.341Z,83.74
2017-10-31T22:37:28.608Z,83.36
2017-10-31T22:39:56.876Z,83.26
2017-10-31T22:42:25.180Z,83.38
2017-10-31T22:44:53.458Z,83.23
2017-10-31T22:47:21.820Z,83.50
2017-10-31T22:49:50.085Z,84.05
2017-10-31T22:52:18.364Z,84.32
2017-10-31T22:54:46.638Z,84.59
2017-10-31T22:57:14.911Z,85.36
2017-10-31T22:59:43.191Z,85.48
2017-10-31T23:02:11.460Z,85.83
2017-10-31T23:04:39.739Z,85.96
2017-10-31T23:07:08.012Z,86.70
2017-10-31T23:09:36.301Z,86.44
2017-10-31T23:12:04.581Z,85.83
2017-10-31T23:14:32.869Z,85.78
2017-10-31T23:17:01.156Z,85.77
2017-10-31T23:19:29.450Z,85.94
2017-10-31T23:21:57.735Z,86.89
2017-10-31T23:24:26.020Z,87.31
2017-10-31T23:26:54.304Z,87.60
2017-10-31T23:29:22.980Z,86.44
2017-10-31T23:31:51.258Z,86.68
2017-10-31T23:34:19.535Z,86.95
2017-10-31T23:36:48.848Z,86.92
2017-10-31T23:39:18.108Z,86.81
2017-10-31T23:41:46.389Z,86.06
2017-10-31T23:44:14.709Z,87.27
2017-10-31T23:46:43.796Z,87.07
2017-10-31T23:49:12.079Z,87.37
2017-10-31T23:51:40.361Z,86.81
2017-10-31T23:54:08.644Z,87.12
2017-10-31T23:56:36.925Z,87.58
2017-10-31T23:59:05.201Z,87.71
